sensor_id;sensor_type;location;lat;lon;timestamp;P1;durP1;ratioP1;P2;durP2;ratioP2
21567;SDS011;10944;42.590;12.630;2023-01-15T00:01:03;18.57;;;10.20;;
21567;SDS011;10944;42.590;12.630;2023-01-15T00:03:30;17.60;;;10.47;;
21567;SDS011;10944;42.590;12.630;2023-01-15T00:06:00;19.30;;;10.07;;
21567;SDS011;10944;42.590;12.630;2023-01-15T00:08:27;18.07;;;10.27;;
21567;SDS011;10944;42.590;12.630;2023-01-15T00:10:53;19.30;;;10.17;;
21567;SDS011;10944;42.590;12.630;2023-01-15T00:13:20;19.43;;;10.33;;
21567;SDS011;10944;42.590;12.630;2023-01-15T00:15:46;19.50;;;11.40;;
21567;SDS011;10944;42.590;12.630;2023-01-15T00:18:11;20.80;;;12.03;;
21567;SDS011;10944;42.590;12.630;2023-01-15T00:20:37;18.90;;;11.30;;
21567;SDS011;10944;42.590;12.630;2023-01-15T00:23:03;21.50;;;11.60;;
21567;SDS011;10944;42.590;12.630;2023-01-15T00:25:29;20.00;;;12.63;;
21567;SDS011;10944;42.590;12.630;2023-01-15T00:28:13;24.63;;;13.07;;
21567;SDS011;10944;42.590;12.630;2023-01-15T00:30:40;23.63;;;13.20;;
21567;SDS011;10944;42.590;12.630;2023-01-15T00:33:06;24.30;;;14.23;;
21567;SDS011;10944;42.590;12.630;2023-01-15T00:35:32;22.67;;;14.17;;
21567;SDS011;10944;42.590;12.630;2023-01-15T00:37:58;24.63;;;14.70;;
21567;SDS011;10944;42.590;12.630;2023-01-15T00:40:24;24.37;;;14.27;;
21567;SDS011;10944;42.590;12.630;2023-01-15T00:42:50;24.47;;;14.13;;
21567;SDS011;10944;42.590;12.630;2023-01-15T00:45:15;22.80;;;12.80;;
21567;SDS011;10944;42.590;12.630;2023-01-15T00:47:42;21.40;;;13.30;;
21567;SDS011;10944;42.590;12.630;2023-01-15T00:50:13;20.17;;;12.10;;
21567;SDS011;10944;42.590;12.630;2023-01-15T00:52:39;20.10;;;10.97;;
21567;SDS011;10944;42.590;12.630;2023-01-15T00:55:06;16.40;;;9.47;;
21567;SDS011;10944;42.590;12.630;2023-01-15T00:57:33;16.60;;;8.73;;
21567;SDS011;10944;42.590;12.630;2023-01-15T00:59:59;15.57;;;8.10;;
21567;SDS011;10944;42.590;12.630;2023-01-15T01:02:25;15.57;;;8.20;;
21567;SDS011;10944;42.590;12.630;2023-01-15T01:04:50;17.23;;;8.27;;
21567;SDS011;10944;42.590;12.630;2023-01-15T01:07:16;12.90;;;7.37;;
21567;SDS011;10944;42.590;12.630;2023-01-15T01:09:42;12.93;;;7.17;;
21567;SDS011;10944;42.590;12.630;2023-01-15T01:12:08;11.87;;;7.30;;
21567;SDS011;10944;42.590;12.630;2023-01-15T01:14:35;13.10;;;7.43;;
21567;SDS011;10944;42.590;12.630;2023-01-15T01:17:01;15.70;;;7.20;;
21567;SDS011;10944;42.590;12.630;2023-01-15T01:19:27;14.47;;;7.23;;
21567;SDS011;10944;42.590;12.630;2023-01-15T01:21:52;12.67;;;7.50;;
21567;SDS011;10944;42.590;12.630;2023-01-15T01:24:19;13.70;;;7.40;;
21567;SDS011;10944;42.590;12.630;2023-01-15T01:26:47;12.13;;;6.97;;
21567;SDS011;10944;42.590;12.630;2023-01-15T01:29:14;13.00;;;6.50;;
21567;SDS011;10944;42.590;12.630;2023-01-15T01:31:42;12.87;;;6.37;;
21567;SDS011;10944;42.590;12.630;2023-01-15T01:34:08;11.93;;;6.20;;
21567;SDS011;10944;42.590;12.630;2023-01-15T01:36:36;13.40;;;6.20;;
21567;SDS011;10944;42.590;12.630;2023-01-15T01:39:03;11.47;;;6.30;;
21567;SDS011;10944;42.590;12.630;2023-01-15T01:41:31;10.00;;;6.23;;
21567;SDS011;10944;42.590;12.630;2023-01-15T01:44:01;11.17;;;6.10;;
21567;SDS011;10944;42.590;12.630;2023-01-15T01:46:28;11.47;;;6.03;;
21567;SDS011;10944;42.590;12.630;2023-01-15T01:49:02;10.90;;;6.27;;
21567;SDS011;10944;42.590;12.630;2023-01-15T01:51:45;10.37;;;5.83;;
21567;SDS011;10944;42.590;12.630;2023-01-15T01:54:27;10.00;;;6.20;;
21567;SDS011;10944;42.590;12.630;2023-01-15T01:56:55;10.60;;;5.73;;
21567;SDS011;10944;42.590;12.630;2023-01-15T01:59:21;12.90;;;6.27;;
21567;SDS011;10944;42.590;12.630;2023-01-15T02:01:49;10.13;;;5.90;;
21567;SDS011;10944;42.590;12.630;2023-01-15T02:04:15;12.90;;;6.23;;
21567;SDS011;10944;42.590;12.630;2023-01-15T02:06:44;11.10;;;6.03;;
21567;SDS011;10944;42.590;12.630;2023-01-15T02:09:10;11.20;;;6.43;;
21567;SDS011;10944;42.590;12.630;2023-01-15T02:11:36;11.00;;;6.40;;
21567;SDS011;10944;42.590;12.630;2023-01-15T02:14:09;10.37;;;5.77;;
21567;SDS011;10944;42.590;12.630;2023-01-15T02:16:49;10.37;;;5.90;;
21567;SDS011;10944;42.590;12.630;2023-01-15T02:27:20;11.47;;;6.10;;
21567;SDS011;10944;42.590;12.630;2023-01-15T02:29:54;10.30;;;5.90;;
21567;SDS011;10944;42.590;12.630;2023-01-15T02:32:37;12.77;;;5.77;;
21567;SDS011;10944;42.590;12.630;2023-01-15T02:35:57;10.60;;;6.03;;
21567;SDS011;10944;42.590;12.630;2023-01-15T02:38:07;10.40;;;5.80;;
21567;SDS011;10944;42.590;12.630;2023-01-15T02:40:38;10.57;;;6.00;;
21567;SDS011;10944;42.590;12.630;2023-01-15T02:43:05;11.47;;;6.20;;
21567;SDS011;10944;42.590;12.630;2023-01-15T02:45:32;12.93;;;6.47;;
21567;SDS011;10944;42.590;12.630;2023-01-15T02:48:03;11.90;;;6.23;;
21567;SDS011;10944;42.590;12.630;2023-01-15T02:50:37;11.23;;;5.90;;
21567;SDS011;10944;42.590;12.630;2023-01-15T02:53:08;12.83;;;6.00;;
21567;SDS011;10944;42.590;12.630;2023-01-15T02:55:38;11.93;;;6.00;;
21567;SDS011;10944;42.590;12.630;2023-01-15T02:58:08;13.40;;;6.27;;
21567;SDS011;10944;42.590;12.630;2023-01-15T03:00:38;11.30;;;6.20;;
21567;SDS011;10944;42.590;12.630;2023-01-15T03:04:16;11.50;;;6.37;;
21567;SDS011;10944;42.590;12.630;2023-01-15T03:09:03;18.00;;;10.23;;
21567;SDS011;10944;42.590;12.630;2023-01-15T03:11:31;20.10;;;13.03;;
21567;SDS011;10944;42.590;12.630;2023-01-15T03:17:24;21.40;;;13.17;;
21567;SDS011;10944;42.590;12.630;2023-01-15T03:19:57;21.60;;;12.73;;
21567;SDS011;10944;42.590;12.630;2023-01-15T03:22:32;22.67;;;12.63;;
21567;SDS011;10944;42.590;12.630;2023-01-15T03:25:07;17.90;;;10.83;;
21567;SDS011;10944;42.590;12.630;2023-01-15T03:27:40;21.80;;;10.73;;
21567;SDS011;10944;42.590;12.630;2023-01-15T03:30:07;14.07;;;8.30;;
21567;SDS011;10944;42.590;12.630;2023-01-15T03:32:36;14.30;;;7.60;;
21567;SDS011;10944;42.590;12.630;2023-01-15T03:35:03;11.43;;;7.23;;
21567;SDS011;10944;42.590;12.630;2023-01-15T03:37:31;13.63;;;7.13;;
21567;SDS011;10944;42.590;12.630;2023-01-15T03:39:56;14.30;;;7.47;;
21567;SDS011;10944;42.590;12.630;2023-01-15T03:50:19;11.07;;;5.60;;
21567;SDS011;10944;42.590;12.630;2023-01-15T03:55:20;10.43;;;4.60;;
21567;SDS011;10944;42.590;12.630;2023-01-15T03:57:52;9.17;;;5.13;;
21567;SDS011;10944;42.590;12.630;2023-01-15T04:00:26;13.23;;;7.63;;
21567;SDS011;10944;42.590;12.630;2023-01-15T04:03:13;16.00;;;8.93;;
21567;SDS011;10944;42.590;12.630;2023-01-15T04:05:41;16.60;;;9.20;;
21567;SDS011;10944;42.590;12.630;2023-01-15T04:08:08;17.90;;;9.87;;
21567;SDS011;10944;42.590;12.630;2023-01-15T04:10:36;14.37;;;8.63;;
21567;SDS011;10944;42.590;12.630;2023-01-15T04:13:02;14.50;;;8.67;;
21567;SDS011;10944;42.590;12.630;2023-01-15T04:15:28;14.67;;;7.83;;
21567;SDS011;10944;42.590;12.630;2023-01-15T04:17:54;13.83;;;7.97;;
21567;SDS011;10944;42.590;12.630;2023-01-15T04:20:19;12.33;;;7.53;;
21567;SDS011;10944;42.590;12.630;2023-01-15T04:22:45;11.70;;;7.10;;
21567;SDS011;10944;42.590;12.630;2023-01-15T04:25:10;12.63;;;6.90;;
21567;SDS011;10944;42.590;12.630;2023-01-15T04:27:36;12.37;;;5.90;;
21567;SDS011;10944;42.590;12.630;2023-01-15T04:30:02;12.73;;;5.40;;
21567;SDS011;10944;42.590;12.630;2023-01-15T04:32:28;10.67;;;5.33;;
21567;SDS011;10944;42.590;12.630;2023-01-15T04:34:53;11.70;;;5.07;;
21567;SDS011;10944;42.590;12.630;2023-01-15T04:37:19;9.03;;;4.43;;
21567;SDS011;10944;42.590;12.630;2023-01-15T04:39:45;9.17;;;4.50;;
21567;SDS011;10944;42.590;12.630;2023-01-15T04:42:12;10.20;;;4.50;;
21567;SDS011;10944;42.590;12.630;2023-01-15T04:44:57;10.20;;;5.00;;
21567;SDS011;10944;42.590;12.630;2023-01-15T04:47:23;8.90;;;4.70;;
21567;SDS011;10944;42.590;12.630;2023-01-15T04:49:49;11.57;;;5.03;;
21567;SDS011;10944;42.590;12.630;2023-01-15T04:52:14;11.43;;;6.57;;
21567;SDS011;10944;42.590;12.630;2023-01-15T04:54:40;20.73;;;12.30;;
21567;SDS011;10944;42.590;12.630;2023-01-15T04:57:06;20.27;;;11.27;;
21567;SDS011;10944;42.590;12.630;2023-01-15T04:59:31;18.77;;;9.97;;
21567;SDS011;10944;42.590;12.630;2023-01-15T05:01:57;17.10;;;10.50;;
21567;SDS011;10944;42.590;12.630;2023-01-15T05:04:23;16.57;;;9.20;;
21567;SDS011;10944;42.590;12.630;2023-01-15T05:06:49;13.10;;;5.63;;
21567;SDS011;10944;42.590;12.630;2023-01-15T05:09:15;13.20;;;7.03;;
21567;SDS011;10944;42.590;12.630;2023-01-15T05:11:41;15.07;;;6.73;;
21567;SDS011;10944;42.590;12.630;2023-01-15T05:14:07;10.87;;;6.70;;
21567;SDS011;10944;42.590;12.630;2023-01-15T05:16:33;10.60;;;5.90;;
21567;SDS011;10944;42.590;12.630;2023-01-15T05:18:59;12.00;;;4.70;;
21567;SDS011;10944;42.590;12.630;2023-01-15T05:21:28;10.50;;;6.50;;
21567;SDS011;10944;42.590;12.630;2023-01-15T05:23:59;22.70;;;12.80;;
21567;SDS011;10944;42.590;12.630;2023-01-15T05:26:26;22.20;;;14.20;;
21567;SDS011;10944;42.590;12.630;2023-01-15T05:28:54;23.00;;;12.90;;
21567;SDS011;10944;42.590;12.630;2023-01-15T05:31:21;15.03;;;8.50;;
21567;SDS011;10944;42.590;12.630;2023-01-15T05:33:48;11.47;;;5.93;;
21567;SDS011;10944;42.590;12.630;2023-01-15T05:36:17;8.87;;;4.80;;
21567;SDS011;10944;42.590;12.630;2023-01-15T05:38:44;9.27;;;4.30;;
21567;SDS011;10944;42.590;12.630;2023-01-15T05:41:10;8.67;;;4.30;;
21567;SDS011;10944;42.590;12.630;2023-01-15T05:44:03;9.03;;;3.90;;
21567;SDS011;10944;42.590;12.630;2023-01-15T05:46:30;8.80;;;3.90;;
21567;SDS011;10944;42.590;12.630;2023-01-15T05:49:01;9.33;;;3.70;;
21567;SDS011;10944;42.590;12.630;2023-01-15T05:51:29;7.77;;;3.80;;
21567;SDS011;10944;42.590;12.630;2023-01-15T05:53:56;10.30;;;4.07;;
21567;SDS011;10944;42.590;12.630;2023-01-15T05:56:22;21.03;;;13.57;;
21567;SDS011;10944;42.590;12.630;2023-01-15T05:58:47;20.83;;;12.53;;
21567;SDS011;10944;42.590;12.630;2023-01-15T06:01:13;18.93;;;11.37;;
21567;SDS011;10944;42.590;12.630;2023-01-15T06:03:39;20.63;;;11.30;;
21567;SDS011;10944;42.590;12.630;2023-01-15T06:06:05;17.13;;;10.23;;
21567;SDS011;10944;42.590;12.630;2023-01-15T06:08:31;17.77;;;10.67;;
21567;SDS011;10944;42.590;12.630;2023-01-15T06:10:57;20.43;;;10.77;;
21567;SDS011;10944;42.590;12.630;2023-01-15T06:13:23;20.77;;;9.87;;
21567;SDS011;10944;42.590;12.630;2023-01-15T06:15:49;13.57;;;8.23;;
21567;SDS011;10944;42.590;12.630;2023-01-15T06:18:14;13.33;;;7.03;;
21567;SDS011;10944;42.590;12.630;2023-01-15T06:20:41;10.80;;;5.67;;
21567;SDS011;10944;42.590;12.630;2023-01-15T06:23:07;15.37;;;6.67;;
21567;SDS011;10944;42.590;12.630;2023-01-15T06:25:36;14.00;;;5.60;;
21567;SDS011;10944;42.590;12.630;2023-01-15T06:28:03;17.07;;;5.60;;
21567;SDS011;10944;42.590;12.630;2023-01-15T06:30:29;11.53;;;4.23;;
21567;SDS011;10944;42.590;12.630;2023-01-15T06:32:55;8.57;;;4.10;;
21567;SDS011;10944;42.590;12.630;2023-01-15T06:35:20;6.87;;;3.57;;
21567;SDS011;10944;42.590;12.630;2023-01-15T06:37:47;14.83;;;3.70;;
21567;SDS011;10944;42.590;12.630;2023-01-15T06:40:14;8.63;;;4.10;;
21567;SDS011;10944;42.590;12.630;2023-01-15T06:42:40;9.57;;;3.40;;
21567;SDS011;10944;42.590;12.630;2023-01-15T06:45:24;9.83;;;3.43;;
21567;SDS011;10944;42.590;12.630;2023-01-15T06:48:08;8.80;;;3.50;;
21567;SDS011;10944;42.590;12.630;2023-01-15T06:50:33;9.07;;;3.40;;
21567;SDS011;10944;42.590;12.630;2023-01-15T06:52:59;7.73;;;3.67;;
21567;SDS011;10944;42.590;12.630;2023-01-15T06:55:25;10.63;;;3.57;;
21567;SDS011;10944;42.590;12.630;2023-01-15T06:57:50;9.27;;;3.33;;
21567;SDS011;10944;42.590;12.630;2023-01-15T07:00:16;10.67;;;3.50;;
21567;SDS011;10944;42.590;12.630;2023-01-15T07:02:42;8.20;;;3.17;;
21567;SDS011;10944;42.590;12.630;2023-01-15T07:05:08;10.00;;;3.78;;
21567;SDS011;10944;42.590;12.630;2023-01-15T07:07:34;12.67;;;3.37;;
21567;SDS011;10944;42.590;12.630;2023-01-15T07:10:00;10.82;;;3.80;;
21567;SDS011;10944;42.590;12.630;2023-01-15T07:12:25;11.13;;;3.47;;
21567;SDS011;10944;42.590;12.630;2023-01-15T07:14:51;13.73;;;4.33;;
21567;SDS011;10944;42.590;12.630;2023-01-15T07:17:17;10.73;;;3.67;;
21567;SDS011;10944;42.590;12.630;2023-01-15T07:19:43;10.50;;;3.97;;
21567;SDS011;10944;42.590;12.630;2023-01-15T07:22:10;8.03;;;3.40;;
21567;SDS011;10944;42.590;12.630;2023-01-15T07:24:36;12.90;;;6.07;;
21567;SDS011;10944;42.590;12.630;2023-01-15T07:27:01;11.20;;;4.80;;
21567;SDS011;10944;42.590;12.630;2023-01-15T07:29:28;11.07;;;3.97;;
21567;SDS011;10944;42.590;12.630;2023-01-15T07:31:54;9.30;;;4.57;;
21567;SDS011;10944;42.590;12.630;2023-01-15T07:34:20;18.00;;;5.07;;
21567;SDS011;10944;42.590;12.630;2023-01-15T07:36:46;13.30;;;4.57;;
21567;SDS011;10944;42.590;12.630;2023-01-15T07:39:12;10.70;;;4.60;;
21567;SDS011;10944;42.590;12.630;2023-01-15T07:41:38;10.07;;;3.53;;
21567;SDS011;10944;42.590;12.630;2023-01-15T07:44:23;8.30;;;3.60;;
21567;SDS011;10944;42.590;12.630;2023-01-15T07:50:12;9.63;;;3.40;;
21567;SDS011;10944;42.590;12.630;2023-01-15T07:52:39;12.05;;;3.63;;
21567;SDS011;10944;42.590;12.630;2023-01-15T07:55:05;9.95;;;3.42;;
21567;SDS011;10944;42.590;12.630;2023-01-15T07:57:32;9.43;;;4.43;;
21567;SDS011;10944;42.590;12.630;2023-01-15T07:59:58;15.97;;;9.27;;
21567;SDS011;10944;42.590;12.630;2023-01-15T08:02:24;26.15;;;17.70;;
21567;SDS011;10944;42.590;12.630;2023-01-15T08:04:50;28.73;;;18.60;;
21567;SDS011;10944;42.590;12.630;2023-01-15T08:07:15;26.03;;;17.03;;
21567;SDS011;10944;42.590;12.630;2023-01-15T08:09:41;23.40;;;13.93;;
21567;SDS011;10944;42.590;12.630;2023-01-15T08:12:07;23.57;;;15.07;;
21567;SDS011;10944;42.590;12.630;2023-01-15T08:14:53;24.57;;;14.93;;
21567;SDS011;10944;42.590;12.630;2023-01-15T08:17:37;16.27;;;9.37;;
21567;SDS011;10944;42.590;12.630;2023-01-15T08:20:04;19.57;;;11.33;;
21567;SDS011;10944;42.590;12.630;2023-01-15T08:22:32;25.37;;;14.47;;
21567;SDS011;10944;42.590;12.630;2023-01-15T08:24:58;28.10;;;15.70;;
21567;SDS011;10944;42.590;12.630;2023-01-15T08:27:23;22.17;;;14.67;;
21567;SDS011;10944;42.590;12.630;2023-01-15T08:29:49;22.33;;;13.90;;
21567;SDS011;10944;42.590;12.630;2023-01-15T08:32:15;24.63;;;13.80;;
21567;SDS011;10944;42.590;12.630;2023-01-15T08:34:41;21.60;;;12.63;;
21567;SDS011;10944;42.590;12.630;2023-01-15T08:37:06;12.13;;;6.20;;
21567;SDS011;10944;42.590;12.630;2023-01-15T08:39:32;13.63;;;5.13;;
21567;SDS011;10944;42.590;12.630;2023-01-15T08:41:58;10.82;;;4.50;;
21567;SDS011;10944;42.590;12.630;2023-01-15T08:44:23;12.20;;;4.40;;
21567;SDS011;10944;42.590;12.630;2023-01-15T08:46:51;9.67;;;4.10;;
21567;SDS011;10944;42.590;12.630;2023-01-15T08:49:17;7.68;;;2.88;;
21567;SDS011;10944;42.590;12.630;2023-01-15T08:51:44;8.70;;;3.10;;
21567;SDS011;10944;42.590;12.630;2023-01-15T08:54:14;10.90;;;3.45;;
21567;SDS011;10944;42.590;12.630;2023-01-15T08:56:40;12.05;;;3.78;;
21567;SDS011;10944;42.590;12.630;2023-01-15T08:59:06;9.48;;;3.20;;
21567;SDS011;10944;42.590;12.630;2023-01-15T09:01:32;8.60;;;3.30;;
21567;SDS011;10944;42.590;12.630;2023-01-15T09:03:58;9.23;;;3.05;;
21567;SDS011;10944;42.590;12.630;2023-01-15T09:06:24;12.70;;;3.30;;
21567;SDS011;10944;42.590;12.630;2023-01-15T09:08:50;10.07;;;3.42;;
21567;SDS011;10944;42.590;12.630;2023-01-15T09:11:16;11.68;;;3.22;;
21567;SDS011;10944;42.590;12.630;2023-01-15T09:13:42;9.77;;;2.97;;
21567;SDS011;10944;42.590;12.630;2023-01-15T09:16:08;9.15;;;3.03;;
21567;SDS011;10944;42.590;12.630;2023-01-15T09:18:35;9.18;;;3.20;;
21567;SDS011;10944;42.590;12.630;2023-01-15T09:21:03;10.38;;;2.97;;
21567;SDS011;10944;42.590;12.630;2023-01-15T09:23:31;9.57;;;3.05;;
21567;SDS011;10944;42.590;12.630;2023-01-15T09:25:58;11.95;;;3.13;;
21567;SDS011;10944;42.590;12.630;2023-01-15T09:28:28;13.35;;;4.70;;
21567;SDS011;10944;42.590;12.630;2023-01-15T09:30:54;15.27;;;7.13;;
21567;SDS011;10944;42.590;12.630;2023-01-15T09:33:20;20.50;;;6.97;;
21567;SDS011;10944;42.590;12.630;2023-01-15T09:35:45;14.07;;;4.50;;
21567;SDS011;10944;42.590;12.630;2023-01-15T09:38:13;11.85;;;4.15;;
21567;SDS011;10944;42.590;12.630;2023-01-15T09:40:47;11.90;;;4.60;;
21567;SDS011;10944;42.590;12.630;2023-01-15T09:46:10;12.52;;;4.50;;
21567;SDS011;10944;42.590;12.630;2023-01-15T09:51:41;12.38;;;3.72;;
21567;SDS011;10944;42.590;12.630;2023-01-15T09:56:49;10.65;;;3.75;;
21567;SDS011;10944;42.590;12.630;2023-01-15T09:59:19;8.18;;;2.83;;
21567;SDS011;10944;42.590;12.630;2023-01-15T10:02:03;8.75;;;3.10;;
21567;SDS011;10944;42.590;12.630;2023-01-15T10:04:47;9.85;;;3.75;;
21567;SDS011;10944;42.590;12.630;2023-01-15T10:07:22;11.57;;;3.90;;
21567;SDS011;10944;42.590;12.630;2023-01-15T10:10:14;12.10;;;4.00;;
21567;SDS011;10944;42.590;12.630;2023-01-15T10:12:44;10.63;;;3.85;;
21567;SDS011;10944;42.590;12.630;2023-01-15T10:17:41;11.45;;;3.42;;
21567;SDS011;10944;42.590;12.630;2023-01-15T10:20:15;8.18;;;3.03;;
21567;SDS011;10944;42.590;12.630;2023-01-15T10:23:14;11.70;;;3.60;;
21567;SDS011;10944;42.590;12.630;2023-01-15T10:26:21;14.35;;;3.58;;
21567;SDS011;10944;42.590;12.630;2023-01-15T10:31:44;12.00;;;3.50;;
21567;SDS011;10944;42.590;12.630;2023-01-15T10:37:19;9.13;;;3.47;;
21567;SDS011;10944;42.590;12.630;2023-01-15T10:45:19;14.15;;;7.07;;
21567;SDS011;10944;42.590;12.630;2023-01-15T10:47:47;12.82;;;6.90;;
21567;SDS011;10944;42.590;12.630;2023-01-15T10:50:19;13.95;;;5.10;;
21567;SDS011;10944;42.590;12.630;2023-01-15T10:53:00;12.70;;;5.85;;
21567;SDS011;10944;42.590;12.630;2023-01-15T10:58:08;13.63;;;4.57;;
21567;SDS011;10944;42.590;12.630;2023-01-15T11:00:54;12.10;;;4.20;;
21567;SDS011;10944;42.590;12.630;2023-01-15T11:03:35;14.60;;;7.00;;
21567;SDS011;10944;42.590;12.630;2023-01-15T11:06:04;9.43;;;5.20;;
21567;SDS011;10944;42.590;12.630;2023-01-15T11:08:34;11.27;;;5.28;;
21567;SDS011;10944;42.590;12.630;2023-01-15T11:11:08;9.95;;;4.05;;
21567;SDS011;10944;42.590;12.630;2023-01-15T11:13:55;11.10;;;5.50;;
21567;SDS011;10944;42.590;12.630;2023-01-15T11:16:40;13.68;;;4.68;;
21567;SDS011;10944;42.590;12.630;2023-01-15T11:19:27;10.27;;;4.10;;
21567;SDS011;10944;42.590;12.630;2023-01-15T11:24:37;9.75;;;4.05;;
21567;SDS011;10944;42.590;12.630;2023-01-15T11:27:29;14.23;;;4.22;;
21567;SDS011;10944;42.590;12.630;2023-01-15T11:29:58;9.30;;;4.57;;
21567;SDS011;10944;42.590;12.630;2023-01-15T11:32:30;14.55;;;5.18;;
21567;SDS011;10944;42.590;12.630;2023-01-15T11:35:13;14.50;;;5.20;;
21567;SDS011;10944;42.590;12.630;2023-01-15T11:37:40;12.63;;;5.70;;
21567;SDS011;10944;42.590;12.630;2023-01-15T11:40:19;10.30;;;5.25;;
21567;SDS011;10944;42.590;12.630;2023-01-15T11:42:49;15.10;;;5.35;;
21567;SDS011;10944;42.590;12.630;2023-01-15T11:45:34;16.85;;;6.30;;
21567;SDS011;10944;42.590;12.630;2023-01-15T11:48:28;13.35;;;5.82;;
21567;SDS011;10944;42.590;12.630;2023-01-15T11:51:17;9.40;;;4.63;;
21567;SDS011;10944;42.590;12.630;2023-01-15T11:53:48;14.07;;;5.05;;
21567;SDS011;10944;42.590;12.630;2023-01-15T11:56:18;18.02;;;5.20;;
21567;SDS011;10944;42.590;12.630;2023-01-15T11:58:49;14.20;;;5.78;;
21567;SDS011;10944;42.590;12.630;2023-01-15T12:01:36;14.57;;;5.10;;
21567;SDS011;10944;42.590;12.630;2023-01-15T12:04:21;19.42;;;10.73;;
21567;SDS011;10944;42.590;12.630;2023-01-15T12:06:54;16.10;;;8.07;;
21567;SDS011;10944;42.590;12.630;2023-01-15T12:14:33;20.35;;;10.32;;
21567;SDS011;10944;42.590;12.630;2023-01-15T12:20:10;16.80;;;7.82;;
21567;SDS011;10944;42.590;12.630;2023-01-15T12:22:53;18.42;;;8.05;;
21567;SDS011;10944;42.590;12.630;2023-01-15T12:25:51;23.17;;;11.35;;
21567;SDS011;10944;42.590;12.630;2023-01-15T12:29:12;20.45;;;9.57;;
21567;SDS011;10944;42.590;12.630;2023-01-15T12:31:37;19.92;;;8.90;;
21567;SDS011;10944;42.590;12.630;2023-01-15T12:34:20;21.40;;;9.52;;
21567;SDS011;10944;42.590;12.630;2023-01-15T12:36:49;23.35;;;10.15;;
21567;SDS011;10944;42.590;12.630;2023-01-15T12:39:21;19.98;;;7.93;;
21567;SDS011;10944;42.590;12.630;2023-01-15T12:42:02;19.95;;;7.72;;
21567;SDS011;10944;42.590;12.630;2023-01-15T12:44:54;18.30;;;8.70;;
21567;SDS011;10944;42.590;12.630;2023-01-15T12:50:23;15.15;;;7.28;;
21567;SDS011;10944;42.590;12.630;2023-01-15T12:56:08;14.95;;;7.60;;
21567;SDS011;10944;42.590;12.630;2023-01-15T12:58:44;15.95;;;7.70;;
21567;SDS011;10944;42.590;12.630;2023-01-15T13:01:13;21.77;;;9.05;;
21567;SDS011;10944;42.590;12.630;2023-01-15T13:04:45;15.88;;;8.57;;
21567;SDS011;10944;42.590;12.630;2023-01-15T13:07:02;19.13;;;9.50;;
21567;SDS011;10944;42.590;12.630;2023-01-15T13:09:44;21.58;;;8.73;;
21567;SDS011;10944;42.590;12.630;2023-01-15T13:12:20;20.70;;;9.60;;
21567;SDS011;10944;42.590;12.630;2023-01-15T13:14:46;20.42;;;10.63;;
21567;SDS011;10944;42.590;12.630;2023-01-15T13:22:13;21.75;;;12.95;;
21567;SDS011;10944;42.590;12.630;2023-01-15T13:27:29;21.15;;;9.90;;
21567;SDS011;10944;42.590;12.630;2023-01-15T13:35:56;19.65;;;9.32;;
21567;SDS011;10944;42.590;12.630;2023-01-15T13:38:38;17.48;;;9.30;;
21567;SDS011;10944;42.590;12.630;2023-01-15T13:41:07;23.50;;;10.75;;
21567;SDS011;10944;42.590;12.630;2023-01-15T13:43:34;18.17;;;10.25;;
21567;SDS011;10944;42.590;12.630;2023-01-15T13:46:09;22.98;;;10.88;;
21567;SDS011;10944;42.590;12.630;2023-01-15T13:48:41;20.65;;;10.77;;
21567;SDS011;10944;42.590;12.630;2023-01-15T13:54:14;18.50;;;8.07;;
21567;SDS011;10944;42.590;12.630;2023-01-15T13:56:42;15.35;;;7.68;;
21567;SDS011;10944;42.590;12.630;2023-01-15T13:59:51;16.92;;;7.90;;
21567;SDS011;10944;42.590;12.630;2023-01-15T14:01:58;15.75;;;7.70;;
21567;SDS011;10944;42.590;12.630;2023-01-15T14:04:35;21.65;;;11.57;;
21567;SDS011;10944;42.590;12.630;2023-01-15T14:07:01;19.13;;;9.77;;
21567;SDS011;10944;42.590;12.630;2023-01-15T14:09:28;24.98;;;9.68;;
21567;SDS011;10944;42.590;12.630;2023-01-15T14:20:53;17.45;;;9.43;;
21567;SDS011;10944;42.590;12.630;2023-01-15T14:31:58;17.77;;;10.10;;
21567;SDS011;10944;42.590;12.630;2023-01-15T14:34:23;19.88;;;9.90;;
21567;SDS011;10944;42.590;12.630;2023-01-15T14:42:03;16.48;;;8.45;;
21567;SDS011;10944;42.590;12.630;2023-01-15T14:44:57;15.18;;;8.52;;
21567;SDS011;10944;42.590;12.630;2023-01-15T14:47:53;20.60;;;9.35;;
21567;SDS011;10944;42.590;12.630;2023-01-15T14:52:45;19.33;;;10.60;;
21567;SDS011;10944;42.590;12.630;2023-01-15T14:55:11;18.52;;;10.43;;
21567;SDS011;10944;42.590;12.630;2023-01-15T14:57:38;17.45;;;9.57;;
21567;SDS011;10944;42.590;12.630;2023-01-15T15:00:10;19.92;;;10.25;;
21567;SDS011;10944;42.590;12.630;2023-01-15T15:02:41;21.40;;;11.20;;
21567;SDS011;10944;42.590;12.630;2023-01-15T15:05:13;20.13;;;10.13;;
21567;SDS011;10944;42.590;12.630;2023-01-15T15:07:42;18.83;;;10.60;;
21567;SDS011;10944;42.590;12.630;2023-01-15T15:15:34;20.85;;;11.13;;
21567;SDS011;10944;42.590;12.630;2023-01-15T15:18:08;23.17;;;10.85;;
21567;SDS011;10944;42.590;12.630;2023-01-15T15:23:37;20.45;;;10.40;;
21567;SDS011;10944;42.590;12.630;2023-01-15T15:26:26;20.25;;;9.70;;
21567;SDS011;10944;42.590;12.630;2023-01-15T15:28:57;17.05;;;9.73;;
21567;SDS011;10944;42.590;12.630;2023-01-15T15:31:31;22.55;;;10.13;;
21567;SDS011;10944;42.590;12.630;2023-01-15T15:34:05;17.25;;;9.65;;
21567;SDS011;10944;42.590;12.630;2023-01-15T15:36:36;18.95;;;10.40;;
21567;SDS011;10944;42.590;12.630;2023-01-15T15:39:11;17.17;;;10.10;;
21567;SDS011;10944;42.590;12.630;2023-01-15T15:41:44;21.80;;;11.27;;
21567;SDS011;10944;42.590;12.630;2023-01-15T15:47:41;24.40;;;11.30;;
21567;SDS011;10944;42.590;12.630;2023-01-15T15:50:26;23.63;;;12.27;;
21567;SDS011;10944;42.590;12.630;2023-01-15T15:52:53;25.95;;;12.50;;
21567;SDS011;10944;42.590;12.630;2023-01-15T15:55:20;24.33;;;10.88;;
21567;SDS011;10944;42.590;12.630;2023-01-15T15:57:48;22.77;;;10.30;;
21567;SDS011;10944;42.590;12.630;2023-01-15T16:00:19;21.98;;;10.23;;
21567;SDS011;10944;42.590;12.630;2023-01-15T16:03:04;18.40;;;9.73;;
21567;SDS011;10944;42.590;12.630;2023-01-15T16:05:32;21.52;;;10.35;;
21567;SDS011;10944;42.590;12.630;2023-01-15T16:08:15;17.63;;;9.75;;
21567;SDS011;10944;42.590;12.630;2023-01-15T16:10:43;19.73;;;8.73;;
21567;SDS011;10944;42.590;12.630;2023-01-15T16:13:21;17.88;;;9.25;;
21567;SDS011;10944;42.590;12.630;2023-01-15T16:16:02;17.15;;;8.80;;
21567;SDS011;10944;42.590;12.630;2023-01-15T16:18:39;19.63;;;8.88;;
21567;SDS011;10944;42.590;12.630;2023-01-15T16:21:15;25.90;;;13.57;;
21567;SDS011;10944;42.590;12.630;2023-01-15T16:23:54;31.90;;;17.27;;
21567;SDS011;10944;42.590;12.630;2023-01-15T16:26:27;36.05;;;18.33;;
21567;SDS011;10944;42.590;12.630;2023-01-15T16:29:03;30.50;;;16.67;;
21567;SDS011;10944;42.590;12.630;2023-01-15T16:31:42;20.00;;;8.55;;
21567;SDS011;10944;42.590;12.630;2023-01-15T16:34:10;14.57;;;7.50;;
21567;SDS011;10944;42.590;12.630;2023-01-15T16:36:46;16.88;;;8.15;;
21567;SDS011;10944;42.590;12.630;2023-01-15T16:39:25;15.18;;;8.38;;
21567;SDS011;10944;42.590;12.630;2023-01-15T16:41:57;21.30;;;9.43;;
21567;SDS011;10944;42.590;12.630;2023-01-15T16:47:20;21.80;;;11.85;;
21567;SDS011;10944;42.590;12.630;2023-01-15T16:49:51;25.48;;;11.63;;